createdAt,value
2022-12-02T00:00:48.476Z,13.90
2022-12-02T00:03:19.156Z,11.87
2022-12-02T00:05:48.119Z,15.57
2022-12-02T00:08:19.048Z,16.53
2022-12-02T00:10:46.120Z,13.70
2022-12-02T00:13:20.617Z,15.40
2022-12-02T00:15:49.521Z,13.33
2022-12-02T00:18:16.919Z,14.57
2022-12-02T00:20:44.691Z,14.87
2022-12-02T00:23:11.266Z,13.63
2022-12-02T00:25:37.861Z,14.07
2022-12-02T00:28:04.743Z,15.43
2022-12-02T00:30:32.879Z,14.43
2022-12-02T00:32:59.439Z,13.80
2022-12-02T00:35:26.101Z,13.23
2022-12-02T00:37:53.056Z,14.60
2022-12-02T00:40:19.999Z,14.80
2022-12-02T00:42:46.567Z,12.90
2022-12-02T00:45:13.587Z,14.17
2022-12-02T00:47:41.495Z,13.77
2022-12-02T00:50:08.769Z,13.80
2022-12-02T00:52:35.374Z,14.50
2022-12-02T00:55:01.948Z,13.67
2022-12-02T00:57:28.540Z,14.37
2022-12-02T00:59:55.131Z,14.17
2022-12-02T01:02:21.739Z,15.07
2022-12-02T01:04:49.965Z,15.73
2022-12-02T01:07:16.651Z,14.47
2022-12-02T01:09:43.189Z,13.13
2022-12-02T01:12:09.803Z,16.23
2022-12-02T01:14:36.340Z,16.10
2022-12-02T01:17:02.943Z,16.13
2022-12-02T01:19:29.607Z,14.27
2022-12-02T01:21:57.584Z,18.20
2022-12-02T01:24:24.148Z,17.00
2022-12-02T01:26:50.708Z,15.87
2022-12-02T01:29:17.258Z,15.93
2022-12-02T01:31:43.966Z,16.77
2022-12-02T01:34:10.544Z,14.07
2022-12-02T01:36:37.179Z,17.97
2022-12-02T01:39:05.439Z,14.73
2022-12-02T01:41:32.237Z,15.87
2022-12-02T01:43:58.872Z,16.03
2022-12-02T01:46:25.608Z,15.77
2022-12-02T01:48:52.256Z,16.17
2022-12-02T01:51:18.926Z,13.67
2022-12-02T01:53:45.491Z,14.83
2022-12-02T01:56:13.479Z,16.23
2022-12-02T01:58:40.061Z,16.30
2022-12-02T02:01:22.505Z,14.23
2022-12-02T02:03:49.185Z,15.33
2022-12-02T02:06:15.772Z,13.47
2022-12-02T02:08:42.336Z,15.97
2022-12-02T02:11:09.228Z,14.17
2022-12-02T02:13:37.418Z,15.53
2022-12-02T02:16:04.314Z,14.67
2022-12-02T02:18:30.936Z,15.27
2022-12-02T02:20:59.309Z,14.33
2022-12-02T02:23:28.193Z,15.87
2022-12-02T02:25:57.627Z,17.03
2022-12-02T02:28:24.938Z,15.87
2022-12-02T02:30:52.379Z,16.90
2022-12-02T02:33:19.580Z,14.73
2022-12-02T02:35:46.764Z,14.67
2022-12-02T02:38:17.213Z,15.20
2022-12-02T02:40:45.651Z,14.43
2022-12-02T02:43:12.569Z,17.60
2022-12-02T02:45:41.444Z,15.47
2022-12-02T02:48:10.671Z,15.60
2022-12-02T02:50:40.422Z,14.60
2022-12-02T02:53:07.733Z,15.03
2022-12-02T02:55:34.859Z,12.70
2022-12-02T02:58:09.198Z,14.33
2022-12-02T03:00:36.982Z,14.27
2022-12-02T03:03:04.583Z,14.33
2022-12-02T03:05:31.230Z,15.53
2022-12-02T03:07:57.895Z,14.73
2022-12-02T03:10:24.749Z,14.83
2022-12-02T03:12:51.540Z,16.40
2022-12-02T03:15:19.780Z,15.47
2022-12-02T03:17:46.601Z,17.23
2022-12-02T03:20:13.743Z,16.23
2022-12-02T03:22:40.402Z,14.80
2022-12-02T03:25:08.371Z,17.03
2022-12-02T03:27:35.255Z,14.23
2022-12-02T03:30:01.974Z,13.27
2022-12-02T03:32:30.017Z,15.07
2022-12-02T03:34:56.645Z,18.17
2022-12-02T03:37:23.627Z,16.67
2022-12-02T03:39:50.997Z,15.07
2022-12-02T03:42:17.915Z,14.50
2022-12-02T03:44:44.565Z,15.83
2022-12-02T03:47:11.400Z,17.50
2022-12-02T03:49:39.524Z,15.73
2022-12-02T03:52:06.379Z,15.13
2022-12-02T03:54:33.947Z,17.07
2022-12-02T03:57:00.553Z,16.90
2022-12-02T03:59:28.072Z,16.73
2022-12-02T04:01:54.993Z,16.47
2022-12-02T04:04:21.748Z,15.83
2022-12-02T04:06:49.758Z,17.83
2022-12-02T04:09:16.697Z,18.30
2022-12-02T04:11:43.244Z,13.73
2022-12-02T04:14:09.814Z,16.07
2022-12-02T04:16:36.369Z,15.83
2022-12-02T04:19:02.966Z,14.40
2022-12-02T04:21:29.550Z,17.47
2022-12-02T04:23:57.530Z,15.33
2022-12-02T04:26:24.141Z,14.10
2022-12-02T04:28:50.713Z,14.53
2022-12-02T04:31:17.316Z,15.33
2022-12-02T04:33:43.895Z,17.90
2022-12-02T04:36:10.468Z,15.53
2022-12-02T04:38:37.033Z,16.60
2022-12-02T04:41:05.127Z,17.73
2022-12-02T04:43:31.694Z,16.27
2022-12-02T04:45:58.291Z,14.73
2022-12-02T04:48:24.891Z,14.63
2022-12-02T04:50:51.437Z,15.67
2022-12-02T04:53:18.041Z,14.30
2022-12-02T04:55:44.597Z,15.97
2022-12-02T04:58:12.588Z,15.13
2022-12-02T05:00:39.178Z,13.43
2022-12-02T05:03:05.846Z,17.50
2022-12-02T05:05:32.520Z,16.63
2022-12-02T05:07:59.181Z,14.67
2022-12-02T05:10:26.811Z,12.77
2022-12-02T05:12:53.366Z,13.40
2022-12-02T05:15:21.346Z,11.97
2022-12-02T05:17:48.039Z,15.60
2022-12-02T05:20:14.831Z,15.23
2022-12-02T05:22:41.419Z,14.57
2022-12-02T05:25:08.462Z,14.77
2022-12-02T05:27:35.756Z,14.50
2022-12-02T05:30:02.670Z,13.30
2022-12-02T05:32:30.679Z,12.03
2022-12-02T05:34:57.255Z,16.67
2022-12-02T05:37:23.806Z,14.63
2022-12-02T05:39:50.759Z,15.13
2022-12-02T05:42:17.466Z,15.53
2022-12-02T05:44:44.115Z,14.90
2022-12-02T05:47:12.733Z,11.97
2022-12-02T05:49:42.490Z,14.97
2022-12-02T05:52:20.670Z,14.60
2022-12-02T05:54:47.273Z,15.70
2022-12-02T05:57:14.345Z,14.67
2022-12-02T05:59:40.953Z,14.53
2022-12-02T06:02:21.398Z,13.90
2022-12-02T06:04:49.565Z,12.93
2022-12-02T06:07:16.338Z,12.40
2022-12-02T06:09:44.019Z,11.93
2022-12-02T06:12:14.832Z,12.13
2022-12-02T06:14:46.827Z,13.90
2022-12-02T06:17:16.134Z,13.80
2022-12-02T06:19:45.511Z,12.40
2022-12-02T06:22:18.507Z,12.13
2022-12-02T06:24:45.646Z,13.60
2022-12-02T06:27:13.798Z,14.83
2022-12-02T06:29:46.682Z,12.97
2022-12-02T06:32:18.604Z,14.67
2022-12-02T06:34:45.992Z,13.03
2022-12-02T06:37:18.411Z,11.87
2022-12-02T06:40:11.959Z,13.03
2022-12-02T06:42:34.830Z,11.13
2022-12-02T06:45:05.682Z,14.30
2022-12-02T06:47:59.602Z,14.50
2022-12-02T06:50:37.558Z,11.73
2022-12-02T06:53:24.484Z,11.37
2022-12-02T06:55:54.236Z,12.53
2022-12-02T06:58:30.163Z,11.37
2022-12-02T07:01:10.189Z,10.53
2022-12-02T07:03:40.793Z,11.37
2022-12-02T07:06:14.140Z,11.17
2022-12-02T07:08:42.540Z,10.77
2022-12-02T07:11:18.974Z,11.03
2022-12-02T07:13:45.851Z,9.83
2022-12-02T07:16:31.691Z,12.40
2022-12-02T07:18:59.737Z,10.60
2022-12-02T07:21:26.425Z,9.73
2022-12-02T07:23:55.629Z,10.37
2022-12-02T07:26:22.216Z,10.33
2022-12-02T07:28:50.428Z,9.63
2022-12-02T07:31:21.423Z,8.97
2022-12-02T07:33:48.437Z,9.70
2022-12-02T07:36:15.062Z,10.57
2022-12-02T07:41:33.284Z,8.63
2022-12-02T07:44:02.645Z,9.07
2022-12-02T07:46:29.300Z,8.47
2022-12-02T07:48:57.443Z,8.40
2022-12-02T07:51:24.268Z,9.13
2022-12-02T07:53:50.860Z,8.17
2022-12-02T07:56:17.400Z,7.53
2022-12-02T08:01:32.232Z,8.03
2022-12-02T08:03:58.855Z,9.57
2022-12-02T08:06:25.394Z,10.33
2022-12-02T08:08:51.967Z,9.70
2022-12-02T08:11:18.547Z,11.40
2022-12-02T08:13:46.489Z,10.80
2022-12-02T08:16:13.041Z,9.20
2022-12-02T08:18:39.619Z,7.87
2022-12-02T08:21:09.084Z,9.57
2022-12-02T08:23:36.087Z,10.77
2022-12-02T08:26:02.834Z,9.57
2022-12-02T08:28:29.388Z,7.33
2022-12-02T08:30:57.408Z,8.00
2022-12-02T08:33:24.092Z,8.07
2022-12-02T08:35:50.663Z,7.53
2022-12-02T08:38:17.242Z,7.80
2022-12-02T08:40:44.386Z,8.10
2022-12-02T08:43:11.357Z,7.53
2022-12-02T08:45:37.941Z,8.20
2022-12-02T08:48:06.122Z,7.97
2022-12-02T08:50:32.713Z,7.60
2022-12-02T08:52:59.318Z,7.60
2022-12-02T08:55:26.435Z,8.70
2022-12-02T08:57:53.156Z,7.63
2022-12-02T09:00:20.060Z,7.07
2022-12-02T09:02:46.667Z,7.33
2022-12-02T09:05:15.112Z,7.73
2022-12-02T09:07:41.840Z,8.23
2022-12-02T09:10:10.416Z,6.80
2022-12-02T09:12:37.226Z,7.40
2022-12-02T09:15:04.901Z,8.30
2022-12-02T09:17:31.465Z,6.87
2022-12-02T09:19:58.004Z,6.93
2022-12-02T09:22:25.927Z,7.10
2022-12-02T09:24:52.717Z,7.83
2022-12-02T09:27:19.421Z,6.90
2022-12-02T09:29:45.983Z,6.70
2022-12-02T09:32:12.525Z,7.43
2022-12-02T09:34:39.097Z,6.57
2022-12-02T09:37:05.701Z,7.47
2022-12-02T09:39:38.479Z,7.30
2022-12-02T09:42:06.068Z,7.33
2022-12-02T09:44:32.672Z,6.97
2022-12-02T09:46:59.707Z,6.50
2022-12-02T09:49:26.479Z,7.67
2022-12-02T09:51:58.355Z,7.60
2022-12-02T09:54:25.142Z,7.10
2022-12-02T09:56:53.234Z,8.10
2022-12-02T09:59:19.845Z,7.10
2022-12-02T10:01:48.112Z,8.43
2022-12-02T10:04:18.353Z,9.27
2022-12-02T10:06:53.004Z,7.60
2022-12-02T10:09:26.571Z,7.73
2022-12-02T10:11:53.202Z,9.07
2022-12-02T10:14:19.955Z,8.10
2022-12-02T10:16:46.704Z,7.90
2022-12-02T10:19:20.163Z,8.57
2022-12-02T10:21:47.339Z,7.13
2022-12-02T10:24:15.211Z,8.37
2022-12-02T10:26:45.294Z,8.23
2022-12-02T10:29:17.033Z,6.43
2022-12-02T10:31:54.229Z,9.43
2022-12-02T10:34:22.310Z,8.07
2022-12-02T10:36:49.676Z,7.37
2022-12-02T10:39:22.743Z,7.00
2022-12-02T10:41:49.910Z,8.63
2022-12-02T10:44:19.204Z,6.57
2022-12-02T10:46:47.043Z,7.00
2022-12-02T10:49:26.618Z,8.00
2022-12-02T10:51:54.180Z,7.40
2022-12-02T10:54:24.677Z,6.47
2022-12-02T10:56:51.644Z,9.20
2022-12-02T10:59:18.217Z,8.10
2022-12-02T11:01:45.195Z,7.87
2022-12-02T11:04:13.094Z,6.17
2022-12-02T11:06:39.861Z,6.93
2022-12-02T11:09:38.378Z,7.20
2022-12-02T11:11:54.529Z,6.97
2022-12-02T11:14:53.178Z,6.53
2022-12-02T11:17:48.709Z,7.70
2022-12-02T11:20:40.076Z,7.57
2022-12-02T11:23:19.983Z,7.50
2022-12-02T11:26:07.547Z,7.67
2022-12-02T11:28:46.570Z,7.63
2022-12-02T11:31:22.853Z,7.43
2022-12-02T11:34:06.400Z,8.57
2022-12-02T11:36:35.344Z,7.93
2022-12-02T11:39:05.254Z,8.37
2022-12-02T11:42:01.507Z,9.10
2022-12-02T11:44:29.006Z,9.47
2022-12-02T11:46:57.217Z,9.17
2022-12-02T11:49:31.681Z,7.57
2022-12-02T11:52:08.434Z,8.00
2022-12-02T11:54:37.359Z,7.00
2022-12-02T11:57:04.672Z,9.07
2022-12-02T11:59:31.313Z,7.80
2022-12-02T12:02:08.544Z,7.17
2022-12-02T12:04:36.502Z,7.83
2022-12-02T12:07:03.060Z,7.27
2022-12-02T12:09:30.805Z,8.87
2022-12-02T12:12:15.287Z,7.00
2022-12-02T12:14:59.948Z,8.27
2022-12-02T12:17:45.304Z,6.93
2022-12-02T12:20:45.083Z,8.13
2022-12-02T12:23:32.213Z,7.83
2022-12-02T12:25:58.836Z,7.70
2022-12-02T12:28:26.658Z,7.73
2022-12-02T12:30:53.488Z,6.87
2022-12-02T12:33:20.175Z,6.60
2022-12-02T12:35:48.345Z,6.70
2022-12-02T12:38:14.906Z,7.87
2022-12-02T12:40:41.421Z,6.30
2022-12-02T12:43:07.953Z,7.17
2022-12-02T12:45:34.487Z,7.10
2022-12-02T12:48:01.013Z,5.93
2022-12-02T12:50:30.136Z,6.40
2022-12-02T12:52:58.719Z,6.70
2022-12-02T12:55:25.667Z,6.40
2022-12-02T12:57:52.212Z,5.80
2022-12-02T13:00:19.705Z,6.60
2022-12-02T13:02:46.286Z,7.00
2022-12-02T13:05:12.854Z,6.33
2022-12-02T13:07:39.491Z,7.77
2022-12-02T13:10:09.287Z,7.83
2022-12-02T13:12:35.807Z,6.90
2022-12-02T13:15:02.353Z,6.97
2022-12-02T13:17:28.873Z,7.17
2022-12-02T13:19:55.413Z,6.60
2022-12-02T13:22:21.969Z,6.73
2022-12-02T13:24:48.511Z,6.57
2022-12-02T13:27:16.431Z,6.90
2022-12-02T13:29:43.026Z,7.27
2022-12-02T13:32:09.575Z,7.03
2022-12-02T13:34:36.101Z,8.20
2022-12-02T13:37:02.671Z,7.37
2022-12-02T13:39:29.225Z,7.43
2022-12-02T13:41:55.778Z,6.43
2022-12-02T13:44:23.643Z,7.07
2022-12-02T13:46:50.291Z,7.67
2022-12-02T13:49:16.926Z,6.87
2022-12-02T13:51:43.477Z,6.43
2022-12-02T13:54:10.045Z,5.97
2022-12-02T13:56:36.589Z,7.27
2022-12-02T13:59:03.123Z,6.80
2022-12-02T14:01:31.021Z,6.10
2022-12-02T14:03:57.652Z,5.03
2022-12-02T14:06:24.215Z,6.10
2022-12-02T14:08:50.737Z,6.07
2022-12-02T14:11:21.192Z,7.43
2022-12-02T14:13:48.268Z,5.47
2022-12-02T14:16:14.915Z,5.00
2022-12-02T14:18:42.870Z,6.90
2022-12-02T14:21:09.398Z,5.87
2022-12-02T14:23:36.031Z,5.83
2022-12-02T14:26:02.635Z,7.03
2022-12-02T14:28:29.142Z,6.90
2022-12-02T14:30:55.840Z,6.50
2022-12-02T14:33:25.309Z,5.87
2022-12-02T14:35:56.276Z,6.70
2022-12-02T14:38:22.921Z,6.80
2022-12-02T14:40:49.467Z,6.17
2022-12-02T14:43:16.003Z,5.60
2022-12-02T14:45:42.570Z,6.97
2022-12-02T14:48:09.122Z,6.43
2022-12-02T14:50:36.212Z,6.20
2022-12-02T14:53:04.215Z,5.53
2022-12-02T14:55:30.738Z,6.30
2022-12-02T14:57:57.309Z,5.80
2022-12-02T15:00:24.017Z,5.27
2022-12-02T15:02:50.584Z,5.60
2022-12-02T15:05:18.809Z,5.10
2022-12-02T15:07:45.488Z,6.97
2022-12-02T15:10:14.793Z,5.90
2022-12-02T15:12:41.852Z,6.03
2022-12-02T15:17:56.063Z,5.97
2022-12-02T15:20:22.639Z,5.97
2022-12-02T15:22:49.224Z,7.30
2022-12-02T15:25:17.216Z,7.07
2022-12-02T15:27:43.754Z,8.53
2022-12-02T15:30:11.691Z,10.77
2022-12-02T15:32:38.388Z,9.23
2022-12-02T15:35:05.847Z,10.40
2022-12-02T15:37:32.425Z,8.37
2022-12-02T15:39:58.986Z,6.97
2022-12-02T15:42:26.855Z,6.73
2022-12-02T15:44:53.559Z,6.87
2022-12-02T15:47:20.194Z,6.97
2022-12-02T15:49:46.749Z,7.20
2022-12-02T15:52:13.290Z,5.93
2022-12-02T15:54:39.786Z,6.47
2022-12-02T15:57:06.303Z,6.87
2022-12-02T15:59:34.238Z,6.80
2022-12-02T16:02:00.852Z,6.30
2022-12-02T16:04:27.514Z,6.67
2022-12-02T16:06:54.065Z,6.30
2022-12-02T16:09:20.641Z,5.17
2022-12-02T16:11:47.186Z,5.40
2022-12-02T16:14:13.737Z,6.13
2022-12-02T16:16:41.689Z,6.60
2022-12-02T16:19:08.249Z,7.67
2022-12-02T16:21:34.805Z,8.27
2022-12-02T16:24:01.347Z,5.83
2022-12-02T16:26:27.904Z,5.83
2022-12-02T16:28:54.415Z,5.93
2022-12-02T16:31:21.849Z,5.97
2022-12-02T16:33:49.829Z,6.23
2022-12-02T16:36:16.393Z,5.43
2022-12-02T16:38:42.878Z,7.50
2022-12-02T16:41:09.419Z,7.17
2022-12-02T16:43:35.930Z,9.03
2022-12-02T16:46:02.521Z,8.53
2022-12-02T16:48:29.052Z,8.40
2022-12-02T16:50:56.920Z,5.80
2022-12-02T16:53:23.570Z,5.30
2022-12-02T16:55:50.116Z,5.43
2022-12-02T16:58:16.636Z,5.93
2022-12-02T17:00:43.211Z,5.83
2022-12-02T17:03:09.797Z,5.73
2022-12-02T17:05:36.328Z,4.87
2022-12-02T17:08:04.394Z,5.13
2022-12-02T17:10:30.993Z,5.17
2022-12-02T17:12:57.532Z,5.43
2022-12-02T17:15:24.110Z,5.30
2022-12-02T17:17:50.776Z,7.70
2022-12-02T17:20:17.753Z,8.30
2022-12-02T17:22:44.297Z,7.07
2022-12-02T17:25:12.493Z,5.70
2022-12-02T17:27:39.141Z,5.43
2022-12-02T17:30:06.886Z,4.80
2022-12-02T17:32:33.436Z,5.90
2022-12-02T17:34:59.975Z,5.97
2022-12-02T17:37:26.551Z,5.27
2022-12-02T17:39:53.090Z,5.53
2022-12-02T17:42:20.989Z,6.73
2022-12-02T17:44:47.515Z,5.53
2022-12-02T17:47:14.033Z,5.63
2022-12-02T17:49:40.554Z,5.90
2022-12-02T17:52:19.726Z,5.63
2022-12-02T17:54:46.990Z,6.33
2022-12-02T17:57:13.595Z,5.40
2022-12-02T17:59:41.473Z,5.00
2022-12-02T18:02:08.591Z,4.53
2022-12-02T18:04:35.214Z,5.50
2022-12-02T18:07:05.355Z,4.93
2022-12-02T18:09:35.942Z,4.40
2022-12-02T18:12:02.486Z,4.43
2022-12-02T18:14:29.028Z,4.17
2022-12-02T18:16:56.981Z,4.13
2022-12-02T18:19:23.589Z,5.00
2022-12-02T18:21:50.102Z,5.47
2022-12-02T18:24:16.656Z,4.80
2022-12-02T18:26:43.219Z,4.37
2022-12-02T18:29:09.766Z,4.33
2022-12-02T18:31:36.311Z,6.07
2022-12-02T18:34:04.177Z,4.73
2022-12-02T18:36:30.716Z,5.43
2022-12-02T18:38:57.233Z,4.30
2022-12-02T18:41:23.781Z,5.83
2022-12-02T18:43:50.307Z,4.63
2022-12-02T18:46:16.914Z,4.73
2022-12-02T18:48:43.593Z,4.27
2022-12-02T18:51:11.471Z,4.20
2022-12-02T18:53:38.014Z,4.43
2022-12-02T18:56:05.186Z,4.70
2022-12-02T18:58:31.714Z,5.20
2022-12-02T19:00:58.281Z,5.17
2022-12-02T19:03:24.928Z,5.67
2022-12-02T19:05:51.503Z,5.43
2022-12-02T19:08:19.486Z,5.63
2022-12-02T19:10:46.075Z,5.40
2022-12-02T19:13:12.642Z,5.40
2022-12-02T19:15:39.349Z,4.80
2022-12-02T19:18:05.915Z,4.90
2022-12-02T19:20:32.432Z,4.73
2022-12-02T19:22:58.997Z,5.03
2022-12-02T19:25:26.901Z,4.87
2022-12-02T19:27:57.846Z,4.97
2022-12-02T19:30:25.116Z,4.70
2022-12-02T19:32:51.673Z,4.80
2022-12-02T19:35:18.232Z,5.10
2022-12-02T19:37:44.743Z,5.97
2022-12-02T19:40:12.467Z,6.33
2022-12-02T19:42:40.524Z,5.57
2022-12-02T19:45:09.464Z,6.03
2022-12-02T19:47:35.997Z,5.73
2022-12-02T19:50:02.554Z,5.37
2022-12-02T19:52:29.081Z,5.27
2022-12-02T19:54:55.931Z,6.10
2022-12-02T19:57:22.712Z,5.40
2022-12-02T19:59:50.588Z,5.73
2022-12-02T20:02:17.561Z,4.90
2022-12-02T20:04:44.100Z,5.27
2022-12-02T20:07:10.667Z,6.27
2022-12-02T20:09:37.290Z,5.67
2022-12-02T20:12:04.185Z,5.63
2022-12-02T20:14:30.700Z,4.90
2022-12-02T20:16:58.620Z,4.97
2022-12-02T20:19:25.163Z,6.03
2022-12-02T20:21:51.748Z,5.07
2022-12-02T20:24:18.340Z,5.33
2022-12-02T20:26:44.897Z,5.17
2022-12-02T20:29:11.427Z,5.20
2022-12-02T20:31:37.992Z,6.03
2022-12-02T20:34:05.921Z,5.47
2022-12-02T20:36:32.571Z,5.30
2022-12-02T20:38:59.128Z,6.50
2022-12-02T20:41:25.636Z,5.70
2022-12-02T20:43:52.219Z,5.93
2022-12-02T20:46:18.783Z,6.13
2022-12-02T20:48:45.391Z,5.97
2022-12-02T20:51:13.225Z,6.63
2022-12-02T20:53:39.773Z,5.57
2022-12-02T20:56:06.547Z,6.60
2022-12-02T20:58:33.067Z,5.90
2022-12-02T21:00:59.876Z,5.27
2022-12-02T21:03:26.451Z,5.63
2022-12-02T21:05:53.015Z,6.53
2022-12-02T21:08:20.924Z,5.87
2022-12-02T21:10:47.485Z,6.27
2022-12-02T21:13:14.023Z,7.47
2022-12-02T21:15:40.576Z,5.30
2022-12-02T21:18:07.151Z,5.33
2022-12-02T21:20:33.946Z,5.37
2022-12-02T21:23:00.897Z,6.50
2022-12-02T21:25:28.803Z,5.83
2022-12-02T21:27:55.506Z,5.67
2022-12-02T21:30:22.573Z,5.70
2022-12-02T21:32:49.140Z,5.23
2022-12-02T21:35:15.893Z,6.27
2022-12-02T21:37:42.460Z,7.07
2022-12-02T21:40:10.472Z,5.70
2022-12-02T21:42:38.528Z,6.40
2022-12-02T21:45:06.209Z,5.73
2022-12-02T21:47:32.748Z,5.47
2022-12-02T21:49:59.259Z,5.70
2022-12-02T21:52:26.065Z,5.33
2022-12-02T21:54:52.799Z,5.63
2022-12-02T21:57:19.660Z,5.27
2022-12-02T21:59:47.573Z,6.70
2022-12-02T22:02:15.506Z,6.37
2022-12-02T22:04:42.524Z,6.00
2022-12-02T22:07:09.763Z,5.40
2022-12-02T22:09:36.345Z,6.87
2022-12-02T22:12:02.950Z,5.27
2022-12-02T22:14:29.516Z,5.20
2022-12-02T22:16:57.454Z,5.23
2022-12-02T22:19:24.042Z,5.23
2022-12-02T22:21:50.592Z,5.17
2022-12-02T22:24:17.105Z,5.80
2022-12-02T22:26:43.632Z,6.63
2022-12-02T22:29:10.134Z,5.07
2022-12-02T22:31:36.784Z,6.40
2022-12-02T22:34:04.735Z,5.87
2022-12-02T22:36:31.273Z,6.13
2022-12-02T22:38:57.779Z,5.80
2022-12-02T22:41:24.358Z,5.80
2022-12-02T22:43:50.871Z,6.37
2022-12-02T22:46:17.447Z,6.23
2022-12-02T22:48:43.969Z,6.00
2022-12-02T22:51:11.850Z,5.13
2022-12-02T22:53:38.411Z,6.03
2022-12-02T22:56:05.068Z,6.00
2022-12-02T22:58:31.585Z,6.23
2022-12-02T23:00:58.196Z,5.83
2022-12-02T23:03:24.742Z,6.67
2022-12-02T23:05:51.305Z,6.50
2022-12-02T23:08:19.552Z,6.43
2022-12-02T23:10:46.132Z,6.30
2022-12-02T23:13:12.688Z,6.53
2022-12-02T23:15:39.764Z,6.27
2022-12-02T23:18:07.095Z,6.10
2022-12-02T23:20:33.633Z,5.43
2022-12-02T23:23:00.171Z,5.07
2022-12-02T23:25:28.126Z,6.20
2022-12-02T23:27:54.825Z,6.53
2022-12-02T23:30:26.766Z,5.90
2022-12-02T23:32:54.975Z,5.70
2022-12-02T23:35:21.531Z,6.70
2022-12-02T23:37:48.041Z,6.70
2022-12-02T23:40:14.596Z,7.47
2022-12-02T23:42:42.501Z,7.33
2022-12-02T23:45:10.089Z,6.10
2022-12-02T23:47:37.012Z,6.53
2022-12-02T23:50:04.227Z,7.23
2022-12-02T23:52:30.797Z,7.07
2022-12-02T23:54:57.560Z,7.07
2022-12-02T23:57:24.112Z,6.37
2022-12-02T23:59:51.959Z,6.23
